createdAt,value
2022-08-21T02:57:28.100Z,16.14
2022-08-21T02:58:08.094Z,16.07
2022-08-21T02:59:08.082Z,16.07
2022-08-21T03:00:08.095Z,16.06
2022-08-21T03:01:08.070Z,16.04
2022-08-21T03:02:08.076Z,16.04
2022-08-21T03:03:08.024Z,16.01
2022-08-21T03:04:08.012Z,15.99
2022-08-21T03:05:08.017Z,15.99
2022-08-21T03:06:08.030Z,15.96
2022-08-21T03:07:11.012Z,15.96
2022-08-21T03:08:07.986Z,15.93
2022-08-21T03:09:07.971Z,15.92
2022-08-21T03:10:07.977Z,15.88
2022-08-21T03:11:07.931Z,15.88
2022-08-21T03:12:07.904Z,15.89
2022-08-21T03:13:07.888Z,15.82
2022-08-21T03:14:07.876Z,15.81
2022-08-21T03:15:07.869Z,15.78
2022-08-21T03:16:09.837Z,15.75
2022-08-21T03:17:07.841Z,15.76
2022-08-21T03:18:07.843Z,15.78
2022-08-21T03:19:07.785Z,15.78
2022-08-21T03:20:07.817Z,15.78
2022-08-21T03:21:07.821Z,15.76
2022-08-21T03:22:07.796Z,15.78
2022-08-21T03:23:14.217Z,15.79
2022-08-21T03:24:07.748Z,15.79
2022-08-21T03:25:07.741Z,15.78
2022-08-21T03:26:08.046Z,15.79
2022-08-21T03:27:09.291Z,15.76
2022-08-21T03:28:07.691Z,15.75
2022-08-21T03:29:07.684Z,15.72
2022-08-21T03:30:07.708Z,15.75
2022-08-21T03:31:07.654Z,15.72
2022-08-21T03:32:07.670Z,15.68
2022-08-21T03:33:07.634Z,15.67
2022-08-21T03:34:07.610Z,15.68
2022-08-21T03:35:07.627Z,15.64
2022-08-21T03:36:07.626Z,15.60
2022-08-21T03:37:07.574Z,15.63
2022-08-21T03:38:07.562Z,15.63
2022-08-21T03:39:07.539Z,15.61
2022-08-21T03:40:07.562Z,15.60
2022-08-21T03:41:08.131Z,15.59
2022-08-21T03:42:07.539Z,15.56
2022-08-21T03:43:07.501Z,15.56
2022-08-21T03:44:07.503Z,15.52
2022-08-21T03:45:07.478Z,15.52
2022-08-21T03:46:07.480Z,15.49
2022-08-21T03:47:06.430Z,15.46
2022-08-21T03:48:07.630Z,15.45
2022-08-21T03:49:07.415Z,15.42
2022-08-21T03:50:07.406Z,15.41
2022-08-21T03:51:07.429Z,15.41
2022-08-21T03:52:07.393Z,15.39
2022-08-21T03:53:07.357Z,15.39
2022-08-21T03:54:07.353Z,15.33
2022-08-21T03:55:07.341Z,15.30
2022-08-21T03:56:07.330Z,15.31
2022-08-21T03:57:07.319Z,15.28
2022-08-21T03:58:16.823Z,15.31
2022-08-21T03:59:07.296Z,15.31
2022-08-21T04:00:07.268Z,15.31
2022-08-21T04:01:07.268Z,15.31
2022-08-21T04:02:07.330Z,15.31
2022-08-21T04:03:07.243Z,15.30
2022-08-21T04:04:07.252Z,15.30
2022-08-21T04:05:07.245Z,15.26
2022-08-21T04:06:07.216Z,15.27
2022-08-21T04:07:07.191Z,15.26
2022-08-21T04:08:07.177Z,15.27
2022-08-21T04:09:07.190Z,15.24
2022-08-21T04:10:07.139Z,15.24
2022-08-21T04:11:07.144Z,15.24
2022-08-21T04:12:07.126Z,15.26
2022-08-21T04:13:07.114Z,15.24
2022-08-21T04:14:07.096Z,15.23
2022-08-21T04:15:07.086Z,15.20
2022-08-21T04:16:07.080Z,15.19
2022-08-21T04:17:07.072Z,15.20
2022-08-21T04:18:07.043Z,15.19
2022-08-21T04:19:07.031Z,15.12
2022-08-21T04:20:07.014Z,15.13
2022-08-21T04:21:07.034Z,15.13
2022-08-21T04:22:06.995Z,15.12
2022-08-21T04:23:06.978Z,15.15
2022-08-21T04:24:06.981Z,15.13
2022-08-21T04:25:06.944Z,15.12
2022-08-21T04:26:07.016Z,15.12
2022-08-21T04:27:06.942Z,15.13
2022-08-21T04:28:06.974Z,15.13
2022-08-21T04:29:06.946Z,15.15
2022-08-21T04:30:06.878Z,15.13
2022-08-21T04:31:06.898Z,15.12
2022-08-21T04:32:06.859Z,15.13
2022-08-21T04:33:06.841Z,15.09
2022-08-21T04:34:06.836Z,15.09
2022-08-21T04:35:06.817Z,15.09
2022-08-21T04:36:06.837Z,15.06
2022-08-21T04:37:06.785Z,15.06
2022-08-21T04:38:06.769Z,15.06
2022-08-21T04:39:06.794Z,15.08
2022-08-21T04:40:06.816Z,15.06
2022-08-21T04:41:06.773Z,15.08
2022-08-21T04:42:06.727Z,15.08
2022-08-21T04:43:06.690Z,15.09
2022-08-21T04:44:06.720Z,15.11
2022-08-21T04:45:06.692Z,15.08
2022-08-21T04:46:06.659Z,15.12
2022-08-21T04:47:06.687Z,15.12
2022-08-21T04:48:10.741Z,15.13
2022-08-21T04:49:06.653Z,15.12
2022-08-21T04:50:06.606Z,15.13
2022-08-21T04:51:06.615Z,15.12
2022-08-21T04:52:06.588Z,15.12
2022-08-21T04:53:06.561Z,15.13
2022-08-21T04:54:06.554Z,15.15
2022-08-21T04:55:06.542Z,15.13
2022-08-21T04:56:06.522Z,15.15
2022-08-21T04:57:06.524Z,15.17
2022-08-21T04:58:06.508Z,15.19
2022-08-21T04:59:06.489Z,15.21
2022-08-21T05:00:07.807Z,15.20
2022-08-21T05:01:06.555Z,15.21
2022-08-21T05:02:06.447Z,15.24
2022-08-21T05:03:06.422Z,15.24
2022-08-21T05:04:06.423Z,15.26
2022-08-21T05:05:06.389Z,15.26
2022-08-21T05:06:06.387Z,15.24
2022-08-21T05:07:06.380Z,15.23
2022-08-21T05:08:06.396Z,15.26
2022-08-21T05:09:06.347Z,15.28
2022-08-21T05:10:06.352Z,15.26
2022-08-21T05:11:06.328Z,15.27
2022-08-21T05:12:06.329Z,15.28
2022-08-21T05:13:06.287Z,15.26
2022-08-21T05:14:06.277Z,15.26
2022-08-21T05:15:06.271Z,15.24
2022-08-21T05:16:06.259Z,15.26
2022-08-21T05:17:06.315Z,15.30
2022-08-21T05:18:06.243Z,15.33
2022-08-21T05:19:06.212Z,15.38
2022-08-21T05:20:06.187Z,15.39
2022-08-21T05:21:06.176Z,15.39
2022-08-21T05:22:06.217Z,15.45
2022-08-21T05:23:06.199Z,15.49
2022-08-21T05:24:06.158Z,15.56
2022-08-21T05:25:10.314Z,15.56
2022-08-21T05:26:06.130Z,15.57
2022-08-21T05:27:06.169Z,15.60
2022-08-21T05:28:06.160Z,15.64
2022-08-21T05:29:09.488Z,15.64
2022-08-21T05:30:06.057Z,15.70
2022-08-21T05:31:06.070Z,15.70
2022-08-21T05:32:06.062Z,15.75
2022-08-21T05:33:06.005Z,15.76
2022-08-21T05:34:06.078Z,15.79
2022-08-21T05:35:05.981Z,15.81
2022-08-21T05:36:05.975Z,15.84
2022-08-21T05:37:07.779Z,15.92
2022-08-21T05:38:05.932Z,15.96
2022-08-21T05:39:05.941Z,15.97
2022-08-21T05:40:22.558Z,16.00
2022-08-21T05:41:05.982Z,16.04
2022-08-21T05:42:05.961Z,16.04
2022-08-21T05:43:05.881Z,16.07
2022-08-21T05:44:10.197Z,16.07
2022-08-21T05:45:05.862Z,16.12
2022-08-21T05:46:05.847Z,16.14
2022-08-21T05:47:05.840Z,16.14
2022-08-21T05:48:05.806Z,16.15
2022-08-21T05:49:05.782Z,16.16
2022-08-21T05:50:05.804Z,16.22
2022-08-21T05:51:05.774Z,16.26
2022-08-21T05:52:05.809Z,16.26
2022-08-21T05:53:07.257Z,16.30
2022-08-21T05:54:05.732Z,16.31
2022-08-21T05:55:05.707Z,16.33
2022-08-21T05:56:05.701Z,16.37
2022-08-21T05:57:05.690Z,16.38
2022-08-21T05:58:05.681Z,16.44
2022-08-21T05:59:08.673Z,16.44
2022-08-21T06:00:05.645Z,16.52
2022-08-21T06:01:05.688Z,16.50
2022-08-21T06:02:05.978Z,16.53
2022-08-21T06:03:05.618Z,16.53
2022-08-21T06:04:05.654Z,16.59
2022-08-21T06:05:05.566Z,16.58
2022-08-21T06:06:05.620Z,16.63
2022-08-21T06:07:05.547Z,16.70
2022-08-21T06:08:05.569Z,16.70
2022-08-21T06:09:05.616Z,16.75
2022-08-21T06:10:05.562Z,16.73
2022-08-21T06:11:05.526Z,16.75
2022-08-21T06:12:05.491Z,16.81
2022-08-21T06:13:05.560Z,16.85
2022-08-21T06:14:05.450Z,16.88
2022-08-21T06:15:05.445Z,16.90
2022-08-21T06:16:05.457Z,16.92
2022-08-21T06:17:05.402Z,16.96
2022-08-21T06:18:04.425Z,16.98
2022-08-21T06:19:05.408Z,17.03
2022-08-21T06:20:05.395Z,17.03
2022-08-21T06:21:05.349Z,17.07
2022-08-21T06:22:05.334Z,17.10
2022-08-21T06:23:05.393Z,17.11
2022-08-21T06:24:05.317Z,17.15
2022-08-21T06:25:05.299Z,17.15
2022-08-21T06:26:05.333Z,17.22
2022-08-21T06:27:05.287Z,17.25
2022-08-21T06:28:05.434Z,17.26
2022-08-21T06:29:05.244Z,17.28
2022-08-21T06:30:05.277Z,17.29
2022-08-21T06:31:05.310Z,17.35
2022-08-21T06:32:05.212Z,17.38
2022-08-21T06:33:07.716Z,17.41
2022-08-21T06:34:05.224Z,17.48
2022-08-21T06:35:05.182Z,17.48
2022-08-21T06:36:05.130Z,17.54
2022-08-21T06:37:05.317Z,17.55
2022-08-21T06:38:05.151Z,17.63
2022-08-21T06:39:24.888Z,17.66
2022-08-21T06:40:05.301Z,17.70
2022-08-21T06:41:05.088Z,17.70
2022-08-21T06:42:05.080Z,17.79
2022-08-21T06:43:05.168Z,17.82
2022-08-21T06:44:06.124Z,17.84
2022-08-21T06:45:26.030Z,17.88
2022-08-21T06:46:05.049Z,17.89
2022-08-21T06:47:05.120Z,17.91
2022-08-21T06:48:04.993Z,17.99
2022-08-21T06:49:04.956Z,18.02
2022-08-21T06:53:28.439Z,18.19
2022-08-21T06:54:25.253Z,18.27
2022-08-21T06:55:29.105Z,18.31
2022-08-21T06:56:45.974Z,18.39
2022-08-21T06:57:24.935Z,18.44
2022-08-21T06:58:24.997Z,18.54
2022-08-21T06:59:26.028Z,18.59
2022-08-21T07:00:24.941Z,18.62
2022-08-21T07:01:24.981Z,18.64
2022-08-21T07:02:27.992Z,18.64
2022-08-21T07:03:24.987Z,18.67
2022-08-21T07:04:24.822Z,18.67
2022-08-21T07:05:24.823Z,18.70
2022-08-21T07:15:44.026Z,19.01
2022-08-21T07:16:45.085Z,19.11
2022-08-21T07:17:44.966Z,19.15
2022-08-21T07:18:44.963Z,19.20
2022-08-21T07:19:44.942Z,19.23
2022-08-21T07:20:44.958Z,19.25
2022-08-21T07:21:44.924Z,19.31
2022-08-21T07:22:44.947Z,19.35
2022-08-21T07:23:44.901Z,19.38
2022-08-21T07:24:44.882Z,19.43
2022-08-21T07:25:44.862Z,19.48
2022-08-21T07:26:44.877Z,19.53
2022-08-21T07:27:44.898Z,19.54
2022-08-21T07:28:44.865Z,19.61
2022-08-21T07:29:44.801Z,19.65
2022-08-21T07:30:44.815Z,19.65
2022-08-21T07:31:44.783Z,19.70
2022-08-21T07:32:44.763Z,19.70
2022-08-21T07:33:44.776Z,19.73
2022-08-21T07:34:44.839Z,19.76
2022-08-21T07:35:44.736Z,19.79
2022-08-21T07:36:44.715Z,19.84
2022-08-21T07:37:44.695Z,19.87
2022-08-21T07:38:44.722Z,19.91
2022-08-21T07:39:43.760Z,19.94
2022-08-21T07:40:44.657Z,19.95
2022-08-21T07:41:44.659Z,19.97
2022-08-21T07:42:44.633Z,20.00
2022-08-21T07:43:45.968Z,20.06
2022-08-21T07:44:44.621Z,20.08
2022-08-21T07:45:44.602Z,20.10
2022-08-21T07:46:44.577Z,20.13
2022-08-21T07:47:44.878Z,20.18
2022-08-21T07:48:44.582Z,20.27
2022-08-21T07:49:44.543Z,20.30
2022-08-21T07:50:44.537Z,20.33
2022-08-21T07:51:44.562Z,20.38
2022-08-21T07:52:44.521Z,20.38
2022-08-21T07:53:44.539Z,20.43
2022-08-21T07:54:44.464Z,20.47
2022-08-21T07:55:44.456Z,20.51
2022-08-21T07:56:44.454Z,20.54
2022-08-21T07:57:44.435Z,20.59
2022-08-21T07:58:44.481Z,20.65
2022-08-21T07:59:44.422Z,20.72
2022-08-21T08:00:44.390Z,20.84
2022-08-21T08:01:44.403Z,20.90
2022-08-21T08:02:44.366Z,21.01
2022-08-21T08:03:44.397Z,21.17
2022-08-21T08:04:50.772Z,21.32
2022-08-21T08:05:44.320Z,21.46
2022-08-21T08:06:44.327Z,21.60
2022-08-21T08:07:44.332Z,21.71
2022-08-21T08:08:44.391Z,21.81
2022-08-21T08:09:44.335Z,21.88
2022-08-21T08:10:44.251Z,21.95
2022-08-21T08:11:44.249Z,21.95
2022-08-21T08:12:44.279Z,21.98
2022-08-21T08:14:10.843Z,21.94
2022-08-21T08:14:44.200Z,21.94
2022-08-21T08:20:53.519Z,21.90
2022-08-21T08:21:53.267Z,21.90
2022-08-21T08:22:53.172Z,21.85
2022-08-21T08:23:53.175Z,21.83
2022-08-21T08:24:53.145Z,21.85
2022-08-21T08:25:53.152Z,21.83
2022-08-21T08:26:53.909Z,21.85
2022-08-21T08:27:53.109Z,21.88
2022-08-21T08:28:53.096Z,21.94
2022-08-21T08:29:53.486Z,21.97
2022-08-21T08:30:53.554Z,22.01
2022-08-21T08:31:53.050Z,22.09
2022-08-21T08:32:53.948Z,22.13
2022-08-21T08:33:55.420Z,22.14
2022-08-21T08:35:01.290Z,22.17
2022-08-21T08:36:53.991Z,22.23
2022-08-21T08:36:58.862Z,22.31
2022-08-21T08:37:58.874Z,22.38
2022-08-21T08:38:58.844Z,22.43
2022-08-21T08:39:58.895Z,22.46
2022-08-21T08:40:58.831Z,22.52
2022-08-21T08:41:58.889Z,22.54
2022-08-21T08:42:58.996Z,22.56
2022-08-21T08:43:58.837Z,22.60
2022-08-21T08:44:58.794Z,22.65
2022-08-21T08:45:58.786Z,22.69
2022-08-21T08:46:58.803Z,22.72
2022-08-21T08:47:58.731Z,22.74
2022-08-21T08:48:58.709Z,22.80
2022-08-21T08:49:58.690Z,22.77
2022-08-21T08:50:58.674Z,22.77
2022-08-21T08:51:58.717Z,22.78
2022-08-21T08:52:58.921Z,22.77
2022-08-21T08:54:03.080Z,22.77
2022-08-21T08:54:58.768Z,22.84
2022-08-21T08:56:03.577Z,22.89
2022-08-21T08:56:58.611Z,22.86
2022-08-21T08:57:58.586Z,22.87
2022-08-21T08:58:58.583Z,22.90
2022-08-21T08:59:58.587Z,22.93
2022-08-21T09:00:59.590Z,23.01
2022-08-21T09:01:58.734Z,23.07
2022-08-21T09:02:58.805Z,23.08
2022-08-21T09:03:58.519Z,23.12
2022-08-21T09:04:58.503Z,23.12
2022-08-21T09:05:58.512Z,23.22
2022-08-21T09:06:58.613Z,23.23
2022-08-21T09:07:58.479Z,23.27
2022-08-21T09:08:58.885Z,23.31
2022-08-21T09:09:58.473Z,23.31
2022-08-21T09:10:58.500Z,23.34
2022-08-21T09:11:58.476Z,23.40
2022-08-21T09:12:58.642Z,23.47
2022-08-21T09:13:58.409Z,23.57
2022-08-21T09:14:58.395Z,23.60
2022-08-21T09:15:58.366Z,23.60
2022-08-21T09:16:58.399Z,23.58
2022-08-21T09:17:58.399Z,23.60
2022-08-21T09:18:58.333Z,23.60
2022-08-21T09:19:58.319Z,23.64
2022-08-21T09:20:59.013Z,23.75
2022-08-21T09:21:58.280Z,23.83
2022-08-21T09:22:58.471Z,23.87
2022-08-21T09:23:58.268Z,23.95
2022-08-21T09:24:58.247Z,24.02
2022-08-21T09:25:58.234Z,24.07
2022-08-21T09:26:58.198Z,24.08
2022-08-21T09:27:58.219Z,24.07
2022-08-21T09:28:58.196Z,24.05
2022-08-21T09:29:58.168Z,24.07
2022-08-21T09:30:58.161Z,24.04
2022-08-21T09:31:58.145Z,24.07
2022-08-21T09:32:58.319Z,24.05
2022-08-21T09:33:58.309Z,24.08
2022-08-21T09:34:58.094Z,24.05
2022-08-21T09:35:58.081Z,24.05
2022-08-21T09:36:58.185Z,24.12
2022-08-21T09:37:58.053Z,24.17
2022-08-21T09:38:58.140Z,24.23
2022-08-21T09:39:58.097Z,24.23
2022-08-21T09:40:58.075Z,24.32
2022-08-21T09:41:57.995Z,24.41
2022-08-21T09:42:58.204Z,24.49
2022-08-21T09:44:00.388Z,24.53
2022-08-21T09:44:58.139Z,24.60
2022-08-21T09:45:57.956Z,24.71
2022-08-21T09:50:19.177Z,24.98
2022-08-21T09:51:17.948Z,24.95
2022-08-21T09:52:17.935Z,24.90
2022-08-21T09:53:38.961Z,24.69
2022-08-21T09:54:17.938Z,24.61
2022-08-21T10:10:56.328Z,24.80
2022-08-21T10:11:55.010Z,24.82
2022-08-21T10:12:55.079Z,24.82
2022-08-21T10:13:56.720Z,24.73
2022-08-21T10:17:54.396Z,24.91
2022-08-21T10:18:55.027Z,24.90
2022-08-21T10:30:06.341Z,25.02
2022-08-21T10:35:51.183Z,24.92
2022-08-21T10:36:52.250Z,24.83
2022-08-21T10:37:52.139Z,24.75
2022-08-21T10:39:11.811Z,24.56
2022-08-21T10:39:52.181Z,24.44
2022-08-21T10:40:52.093Z,24.29
2022-08-21T10:41:52.094Z,24.14
2022-08-21T10:42:52.125Z,24.02
2022-08-21T10:43:52.283Z,24.04
2022-08-21T10:44:53.615Z,24.12
2022-08-21T10:45:52.022Z,24.20
2022-08-21T10:46:52.032Z,24.35
2022-08-21T10:47:56.047Z,24.50
2022-08-21T10:48:51.996Z,24.56
2022-08-21T10:49:52.014Z,24.59
2022-08-21T10:50:51.961Z,24.69
2022-08-21T10:51:52.506Z,24.76
2022-08-21T10:52:52.065Z,24.76
2022-08-21T10:53:51.917Z,24.75
2022-08-21T10:54:51.915Z,24.77
2022-08-21T10:55:52.013Z,24.77
2022-08-21T10:56:51.875Z,24.76
2022-08-21T10:57:51.894Z,24.82
2022-08-21T10:58:51.869Z,24.88
2022-08-21T10:59:51.847Z,24.90
2022-08-21T11:00:51.943Z,24.92
2022-08-21T11:01:51.864Z,24.90
2022-08-21T11:02:51.961Z,24.95
2022-08-21T11:03:51.781Z,25.02
2022-08-21T11:04:51.797Z,25.13
2022-08-21T11:05:51.882Z,25.15
2022-08-21T11:06:51.731Z,25.17
2022-08-21T11:07:51.759Z,25.12
2022-08-21T11:08:51.746Z,25.05
2022-08-21T11:09:52.467Z,25.09
2022-08-21T11:11:00.048Z,25.17
2022-08-21T11:11:59.097Z,25.20
2022-08-21T11:12:52.010Z,25.34
2022-08-21T11:13:51.646Z,25.22
2022-08-21T11:14:51.631Z,25.13
2022-08-21T11:15:51.659Z,25.20
2022-08-21T11:16:51.660Z,25.28
2022-08-21T11:17:51.628Z,25.39
2022-08-21T11:18:51.615Z,25.30
2022-08-21T11:19:51.689Z,25.24
2022-08-21T11:20:51.580Z,25.16
2022-08-21T11:21:51.538Z,25.19
2022-08-21T11:22:55.026Z,25.30
2022-08-21T11:23:51.517Z,25.31
2022-08-21T11:25:12.588Z,25.32
2022-08-21T11:26:12.524Z,25.43
2022-08-21T11:26:51.769Z,25.50
2022-08-21T11:27:51.475Z,25.56
2022-08-21T11:28:51.472Z,25.65
2022-08-21T11:29:53.168Z,25.50
2022-08-21T11:30:51.410Z,25.32
2022-08-21T11:31:51.402Z,25.35
2022-08-21T11:32:51.567Z,25.39
2022-08-21T11:33:51.392Z,25.47
2022-08-21T11:34:51.369Z,25.39
2022-08-21T11:35:51.361Z,25.52
2022-08-21T11:36:51.397Z,25.62
2022-08-21T11:37:51.341Z,25.79
2022-08-21T11:38:51.315Z,25.90
2022-08-21T11:39:51.357Z,25.93
2022-08-21T11:40:51.350Z,26.02
2022-08-21T11:42:12.256Z,26.06
2022-08-21T11:42:51.326Z,26.15
2022-08-21T11:43:51.229Z,26.25
2022-08-21T11:44:51.230Z,26.37
2022-08-21T11:45:51.206Z,26.35
2022-08-21T11:46:51.198Z,26.36
2022-08-21T11:47:54.040Z,26.37
2022-08-21T11:48:51.166Z,26.36
2022-08-21T11:49:51.149Z,26.40
2022-08-21T11:50:51.150Z,26.47
2022-08-21T11:51:51.128Z,26.49
2022-08-21T11:52:51.252Z,26.29
2022-08-21T11:53:53.991Z,26.36
2022-08-21T11:54:51.113Z,26.40
2022-08-21T11:55:51.138Z,26.54
2022-08-21T11:56:51.055Z,26.54
2022-08-21T11:57:51.047Z,26.42
2022-08-21T11:58:51.061Z,26.36
2022-08-21T11:59:51.067Z,26.44
2022-08-21T12:00:51.068Z,26.47
2022-08-21T12:01:51.094Z,26.54
2022-08-21T12:02:51.084Z,26.61
2022-08-21T12:03:50.983Z,26.76
2022-08-21T12:04:51.002Z,26.81
2022-08-21T12:05:50.963Z,26.83
2022-08-21T12:06:50.931Z,26.80
2022-08-21T12:07:50.932Z,26.72
2022-08-21T12:08:50.923Z,26.64
2022-08-21T12:09:50.913Z,26.57
2022-08-21T12:10:50.890Z,26.52
2022-08-21T12:11:50.925Z,26.37
2022-08-21T12:12:50.841Z,26.32
2022-08-21T12:13:50.885Z,26.47
2022-08-21T12:14:50.841Z,26.72
2022-08-21T12:15:49.814Z,26.87
2022-08-21T12:16:50.823Z,26.99
2022-08-21T12:17:50.771Z,26.99
2022-08-21T12:18:50.781Z,27.14
2022-08-21T12:19:50.743Z,27.29
2022-08-21T12:20:51.075Z,27.42
2022-08-21T12:21:50.737Z,27.54
2022-08-21T12:22:50.729Z,27.54
2022-08-21T12:23:50.716Z,27.24
2022-08-21T12:24:50.750Z,26.86
2022-08-21T12:25:50.727Z,26.81
2022-08-21T12:26:50.718Z,26.91
2022-08-21T12:27:50.635Z,26.92
2022-08-21T12:28:50.633Z,26.95
2022-08-21T12:29:50.653Z,26.95
2022-08-21T12:30:53.875Z,27.04
2022-08-21T12:31:50.588Z,27.19
2022-08-21T12:32:50.574Z,27.36
2022-08-21T12:33:50.601Z,27.59
2022-08-21T12:34:50.564Z,27.53
2022-08-21T12:35:50.600Z,27.66
2022-08-21T12:36:50.518Z,27.86
2022-08-21T12:37:50.574Z,28.10
2022-08-21T12:38:50.548Z,28.31
2022-08-21T12:39:50.534Z,28.41
2022-08-21T12:40:57.054Z,28.10
2022-08-21T12:42:12.260Z,27.86
2022-08-21T12:42:58.699Z,27.74
2022-08-21T12:43:50.444Z,27.66
2022-08-21T12:45:11.466Z,27.66
2022-08-21T12:45:50.393Z,27.51
2022-08-21T12:47:11.390Z,27.59
2022-08-21T13:06:09.234Z,27.46
2022-08-21T13:07:10.198Z,27.04
2022-08-21T13:08:10.193Z,26.80
2022-08-21T13:12:00.315Z,26.86
2022-08-21T13:12:40.165Z,26.80
2022-08-21T13:13:45.642Z,26.72
2022-08-21T13:15:55.446Z,26.94
2022-08-21T13:16:54.105Z,27.06
2022-08-21T13:17:54.083Z,27.09
2022-08-21T13:18:54.078Z,26.96
2022-08-21T13:19:54.096Z,26.95
2022-08-21T13:21:28.005Z,26.92
2022-08-21T13:21:54.030Z,26.84
2022-08-21T13:22:54.013Z,26.83
2022-08-21T13:23:54.060Z,26.86
2022-08-21T13:24:57.030Z,26.95
2022-08-21T13:25:54.016Z,26.98
2022-08-21T13:26:54.013Z,26.96
2022-08-21T13:27:53.965Z,26.96
2022-08-21T13:28:53.988Z,26.92
2022-08-21T13:29:54.295Z,26.98
2022-08-21T13:30:53.967Z,27.13
2022-08-21T13:31:53.960Z,27.19
2022-08-21T13:32:55.398Z,27.10
2022-08-21T13:33:54.806Z,27.02
2022-08-21T13:34:54.432Z,27.01
2022-08-21T13:37:59.481Z,27.09
2022-08-21T13:38:53.153Z,26.92
2022-08-21T13:39:53.220Z,26.87
2022-08-21T13:40:53.086Z,26.77
2022-08-21T13:42:33.677Z,26.76
2022-08-21T13:42:53.095Z,26.68
2022-08-21T13:43:53.057Z,26.68
2022-08-21T13:44:53.090Z,26.58
2022-08-21T13:45:53.056Z,26.50
2022-08-21T13:46:58.596Z,26.46
2022-08-21T13:47:54.025Z,26.39
2022-08-21T13:49:13.973Z,26.39
2022-08-21T13:49:55.928Z,26.25
2022-08-21T13:50:52.946Z,26.27
2022-08-21T13:51:52.990Z,26.21
2022-08-21T13:52:52.923Z,26.29
2022-08-21T13:53:52.947Z,26.36
2022-08-21T13:54:52.930Z,26.39
2022-08-21T13:55:55.329Z,26.37
2022-08-21T13:56:52.888Z,26.46
2022-08-21T13:57:52.896Z,26.49
2022-08-21T13:58:52.837Z,26.55
2022-08-21T13:59:52.838Z,26.61
2022-08-21T14:00:52.897Z,26.62
2022-08-21T14:01:52.888Z,26.65
2022-08-21T14:02:52.830Z,26.68
2022-08-21T14:03:52.777Z,26.64
2022-08-21T14:04:53.303Z,26.49
2022-08-21T14:05:52.851Z,26.40
2022-08-21T14:06:52.749Z,26.31
2022-08-21T14:07:52.775Z,26.22
2022-08-21T14:08:52.725Z,26.09
2022-08-21T14:09:52.724Z,25.94
2022-08-21T14:10:55.924Z,25.87
2022-08-21T14:11:52.748Z,25.89
2022-08-21T14:12:52.730Z,25.84
2022-08-21T14:13:52.648Z,25.71
2022-08-21T14:14:52.869Z,25.68
2022-08-21T14:15:52.815Z,25.61
2022-08-21T14:16:52.678Z,25.56
2022-08-21T14:17:52.589Z,25.49
2022-08-21T14:18:52.595Z,25.42
2022-08-21T14:19:52.586Z,25.44
2022-08-21T14:20:52.794Z,25.47
2022-08-21T14:21:52.533Z,25.43
2022-08-21T14:22:52.590Z,25.38
2022-08-21T14:23:52.567Z,25.39
2022-08-21T14:24:55.030Z,25.53
2022-08-21T14:25:52.526Z,25.62
2022-08-21T14:26:52.497Z,25.69
2022-08-21T14:27:52.454Z,25.86
2022-08-21T14:28:52.484Z,25.99
2022-08-21T14:29:52.427Z,26.11
2022-08-21T14:30:53.973Z,26.08
2022-08-21T14:31:52.457Z,26.08
2022-08-21T14:32:52.447Z,26.12
2022-08-21T14:33:52.377Z,26.18
2022-08-21T14:34:52.421Z,26.18
2022-08-21T14:35:52.389Z,26.08
2022-08-21T14:36:52.399Z,25.98
2022-08-21T14:37:52.329Z,25.98
2022-08-21T14:39:13.361Z,26.04
2022-08-21T14:39:52.352Z,26.08
2022-08-21T14:40:52.358Z,26.12
2022-08-21T14:41:52.364Z,26.15
2022-08-21T14:42:52.318Z,26.21
2022-08-21T14:43:57.766Z,26.22
2022-08-21T14:44:52.478Z,26.18
2022-08-21T14:45:53.507Z,26.22
2022-08-21T14:46:56.481Z,26.28
2022-08-21T14:49:49.977Z,26.58
2022-08-21T14:50:50.872Z,26.47
2022-08-21T14:51:53.813Z,26.44
2022-08-21T14:52:50.851Z,26.49
2022-08-21T14:53:50.935Z,26.55
2022-08-21T14:54:50.850Z,26.57
2022-08-21T14:55:50.814Z,26.49
2022-08-21T14:56:50.852Z,26.49
2022-08-21T14:57:50.794Z,26.47
2022-08-21T14:58:50.827Z,26.39
2022-08-21T14:59:50.765Z,26.36
2022-08-21T15:00:50.773Z,26.35
2022-08-21T15:01:50.855Z,26.24
2022-08-21T15:02:50.722Z,26.18
2022-08-21T15:03:50.779Z,26.12
2022-08-21T15:04:50.735Z,26.20
2022-08-21T15:05:50.718Z,26.15
2022-08-21T15:06:50.722Z,26.15
2022-08-21T15:07:50.752Z,26.08
2022-08-21T15:08:50.669Z,26.02
2022-08-21T15:09:50.665Z,25.99
2022-08-21T15:11:10.689Z,25.99
2022-08-21T15:11:50.710Z,25.99
2022-08-21T15:12:50.606Z,25.99
2022-08-21T15:13:50.669Z,26.01
2022-08-21T15:14:50.557Z,26.04
2022-08-21T15:15:50.594Z,26.02
2022-08-21T15:16:50.579Z,25.98
2022-08-21T15:17:50.553Z,25.94
2022-08-21T15:18:50.510Z,25.87
2022-08-21T15:19:50.504Z,25.75
2022-08-21T15:20:50.484Z,25.75
2022-08-21T15:21:50.486Z,25.77
2022-08-21T15:22:50.501Z,25.77
2022-08-21T15:23:50.454Z,25.89
2022-08-21T15:24:50.505Z,25.93
2022-08-21T15:25:50.557Z,25.99
2022-08-21T15:26:50.498Z,26.06
2022-08-21T15:27:50.404Z,26.17
2022-08-21T15:28:50.416Z,26.17
2022-08-21T15:29:50.520Z,26.21
2022-08-21T15:30:50.384Z,26.17
2022-08-21T15:31:50.410Z,26.20
2022-08-21T15:32:49.314Z,26.17
2022-08-21T15:33:50.319Z,26.11
2022-08-21T15:34:50.344Z,26.12
2022-08-21T15:35:50.338Z,26.20
2022-08-21T15:36:50.361Z,26.20
2022-08-21T15:37:50.320Z,26.21
2022-08-21T15:38:50.256Z,26.24
2022-08-21T15:39:54.238Z,26.18
2022-08-21T15:40:51.750Z,26.22
2022-08-21T15:41:50.238Z,26.27
2022-08-21T15:42:50.294Z,26.22
2022-08-21T15:43:50.207Z,26.18
2022-08-21T15:44:50.227Z,26.06
2022-08-21T15:45:50.246Z,25.98
2022-08-21T15:46:50.145Z,25.99
2022-08-21T15:47:50.683Z,25.99
2022-08-21T15:48:50.142Z,25.94
2022-08-21T15:49:50.112Z,25.93
2022-08-21T15:50:50.153Z,25.91
2022-08-21T15:51:50.157Z,25.94
2022-08-21T15:52:50.166Z,25.99
2022-08-21T15:53:50.090Z,25.99
2022-08-21T15:54:50.039Z,26.01
2022-08-21T15:55:50.052Z,26.08
2022-08-21T15:56:50.125Z,26.15
2022-08-21T15:57:58.075Z,26.25
2022-08-21T15:58:50.019Z,26.27
2022-08-21T15:59:50.031Z,26.31
2022-08-21T16:00:49.998Z,26.32
2022-08-21T16:01:50.044Z,26.32
2022-08-21T16:02:49.997Z,26.35
2022-08-21T16:03:49.976Z,26.36
2022-08-21T16:04:49.953Z,26.32
2022-08-21T16:05:49.934Z,26.24
2022-08-21T16:06:54.140Z,26.25
2022-08-21T16:07:49.941Z,26.22
2022-08-21T16:08:49.919Z,26.20
2022-08-21T16:09:49.890Z,26.18
2022-08-21T16:10:49.851Z,26.17
2022-08-21T16:11:49.904Z,26.21
2022-08-21T16:12:49.797Z,26.29
2022-08-21T16:13:52.804Z,26.29
2022-08-21T16:14:49.823Z,26.32
2022-08-21T16:15:49.792Z,26.36
2022-08-21T16:16:49.843Z,26.43
2022-08-21T16:17:49.769Z,26.42
2022-08-21T16:18:49.760Z,26.44
2022-08-21T16:19:49.705Z,26.44
2022-08-21T16:20:49.685Z,26.50
2022-08-21T16:21:49.722Z,26.52
2022-08-21T16:22:49.664Z,26.47
2022-08-21T16:23:49.717Z,26.46
2022-08-21T16:24:49.701Z,26.44
2022-08-21T16:25:49.691Z,26.42
2022-08-21T16:26:57.628Z,26.35
2022-08-21T16:27:49.710Z,26.32
2022-08-21T16:28:49.602Z,26.28
2022-08-21T16:29:49.587Z,26.20
2022-08-21T16:30:49.548Z,26.11
2022-08-21T16:31:49.728Z,26.04
2022-08-21T16:32:49.555Z,25.97
2022-08-21T16:33:49.522Z,25.90
2022-08-21T16:34:49.540Z,25.84
2022-08-21T16:35:49.531Z,25.79
2022-08-21T16:36:49.556Z,25.75
2022-08-21T16:37:52.971Z,25.71
2022-08-21T16:38:49.531Z,25.72
2022-08-21T16:39:49.529Z,25.72
2022-08-21T16:40:49.451Z,25.67
2022-08-21T16:41:49.455Z,25.61
2022-08-21T16:42:49.462Z,25.65
2022-08-21T16:43:49.445Z,25.64
2022-08-21T16:45:10.719Z,25.64
2022-08-21T16:45:49.358Z,25.65
2022-08-21T16:46:49.363Z,25.65
2022-08-21T16:47:49.357Z,25.67
2022-08-21T16:48:49.354Z,25.67
2022-08-21T16:49:49.302Z,25.64
2022-08-21T16:50:51.164Z,25.61
2022-08-21T16:51:49.282Z,25.56
2022-08-21T16:52:49.264Z,25.57
2022-08-21T16:53:49.379Z,25.61
2022-08-21T16:54:49.301Z,25.59
2022-08-21T16:56:10.232Z,25.62
2022-08-21T16:56:49.311Z,25.61
2022-08-21T16:57:49.241Z,25.65
2022-08-21T16:58:49.221Z,25.64
2022-08-21T16:59:49.312Z,25.62
2022-08-21T17:00:49.361Z,25.65
2022-08-21T17:01:49.239Z,25.67
2022-08-21T17:02:49.169Z,25.67
2022-08-21T17:03:49.128Z,25.61
2022-08-21T17:04:49.108Z,25.62
2022-08-21T17:05:49.089Z,25.65
2022-08-21T17:06:49.090Z,25.62
2022-08-21T17:07:49.096Z,25.62
2022-08-21T17:08:52.517Z,25.64
2022-08-21T17:09:49.166Z,25.59